Time;durP1;ratioP1;P1;durP2;ratioP2;P2;SDS_P1;SDS_P2;PMS_P1;PMS_P2;Temp;Humidity;BMP_temperature;BMP_pressure;BME280_temperature;BME280_humidity;BME280_pressure;Samples;Min_cycle;Max_cycle;Signal;HPM_P1;HPM_P2
2023/10/20 00:01:14;;;;;;;;;;;15.90;99.90;;;;;;5086749;28;19955;-82
2023/10/20 00:03:40;;;;;;;;;;;15.90;99.90;;;;;;5076285;28;19913;-89
2023/10/20 00:06:05;;;;;;;;;;;15.90;99.90;;;;;;5086636;28;19912;-83
2023/10/20 00:08:31;;;;;;;;;;;15.90;99.90;;;;;;5107727;27;19936;-82
2023/10/20 00:11:05;;;;;;;;;;;15.90;99.90;;;;;;5081231;28;19920;-85
2023/10/20 00:13:32;;;;;;;;;;;15.90;99.90;;;;;;5084540;28;19912;-82
2023/10/20 00:15:57;;;;;;;;;;;15.90;99.90;;;;;;5075939;28;19920;-89
2023/10/20 00:18:23;;;;;;;;;;;15.90;99.90;;;;;;5072278;28;20360;-84
2023/10/20 00:20:48;;;;;;;;;;;15.90;99.90;;;;;;5073390;28;19938;-87
2023/10/20 00:23:14;;;;;;;;;;;15.90;99.90;;;;;;5071313;28;19912;-83
2023/10/20 00:25:40;;;;;;;;;;;15.90;99.90;;;;;;5086524;28;19916;-89
2023/10/20 00:28:06;;;;;;;;;;;15.90;99.90;;;;;;5091351;28;19918;-87
2023/10/20 00:30:31;;;;;;;;;;;15.90;99.90;;;;;;5090658;28;19912;-89
2023/10/20 00:32:57;;;;;;;;;;;15.80;99.90;;;;;;5081366;28;19912;-90
2023/10/20 00:35:22;;;;;;;;;;;15.80;99.90;;;;;;5072031;28;19927;-82
2023/10/20 00:37:48;;;;;;;;;;;15.80;99.90;;;;;;5088474;28;19912;-90
2023/10/20 00:40:14;;;;;;;;;;;15.80;99.90;;;;;;5092462;28;19908;-82
2023/10/20 00:42:39;;;;;;;;;;;15.70;99.90;;;;;;5090589;28;19912;-85
2023/10/20 00:45:05;;;;;;;;;;;15.60;99.90;;;;;;5091985;28;19962;-87
2023/10/20 00:47:31;;;;;;;;;;;15.70;99.90;;;;;;5085445;28;19912;-87
2023/10/20 00:49:57;;;;;;;;;;;15.60;99.90;;;;;;5092163;28;20279;-83
2023/10/20 00:52:23;;;;;;;;;;;15.50;99.90;;;;;;5092072;28;20013;-86
2023/10/20 00:54:50;;;;;;;;;;;15.40;99.90;;;;;;5074701;28;19912;-84
2023/10/20 00:57:16;;;;;;;;;;;15.40;99.90;;;;;;5074908;28;19919;-85
2023/10/20 00:59:42;;;;;;;;;;;15.40;99.90;;;;;;5070831;28;20737;-88
2023/10/20 01:02:08;;;;;;;;;;;15.40;99.90;;;;;;5067027;28;19919;-88
2023/10/20 01:04:33;;;;;;;;;;;15.40;99.90;;;;;;5051622;28;20381;-86
2023/10/20 01:06:59;;;;;;;;;;;15.40;99.90;;;;;;5059838;28;19912;-83
2023/10/20 01:09:27;;;;;;;;;;;15.40;99.90;;;;;;5072819;28;19914;-83
2023/10/20 01:11:53;;;;;;;;;;;15.40;99.90;;;;;;5052746;28;19916;-82
2023/10/20 01:14:19;;;;;;;;;;;15.40;99.90;;;;;;5057554;28;19975;-84
2023/10/20 01:16:44;;;;;;;;;;;15.50;99.90;;;;;;5070438;28;19948;-89
2023/10/20 01:19:10;;;;;;;;;;;15.50;99.90;;;;;;5070341;28;19966;-84
2023/10/20 01:21:35;;;;;;;;;;;15.50;99.90;;;;;;5067941;28;20016;-83
2023/10/20 01:24:02;;;;;;;;;;;15.50;99.90;;;;;;5051072;28;19970;-83
2023/10/20 01:26:29;;;;;;;;;;;15.60;99.90;;;;;;5051152;28;20329;-87
2023/10/20 01:28:55;;;;;;;;;;;15.60;99.90;;;;;;5032601;28;20328;-82
2023/10/20 01:31:20;;;;;;;;;;;15.60;99.90;;;;;;5052052;28;19908;-87
2023/10/20 01:33:46;;;;;;;;;;;15.60;99.90;;;;;;5054421;28;20003;-83
2023/10/20 01:36:11;;;;;;;;;;;15.50;99.90;;;;;;5070404;28;19917;-89
2023/10/20 01:38:37;;;;;;;;;;;15.50;99.90;;;;;;5056118;28;19969;-89
2023/10/20 01:41:02;;;;;;;;;;;15.50;99.90;;;;;;5066419;28;19916;-82
2023/10/20 01:43:28;;;;;;;;;;;15.50;99.90;;;;;;5063172;28;19913;-82
2023/10/20 01:45:54;;;;;;;;;;;15.50;99.90;;;;;;5051357;28;19916;-82
2023/10/20 01:48:20;;;;;;;;;;;15.50;99.90;;;;;;5067673;28;19917;-89
2023/10/20 01:50:45;;;;;;;;;;;15.50;99.90;;;;;;5090881;28;19908;-82
2023/10/20 01:53:11;;;;;;;;;;;15.40;99.90;;;;;;5074463;28;19912;-82
2023/10/20 01:55:39;;;;;;;;;;;15.40;99.90;;;;;;5103353;27;19920;-83
2023/10/20 01:58:05;;;;;;;;;;;15.40;99.90;;;;;;5070139;28;19913;-82
2023/10/20 02:00:31;;;;;;;;;;;15.40;99.90;;;;;;5070788;28;19963;-86
2023/10/20 02:02:56;;;;;;;;;;;15.40;99.90;;;;;;5076331;28;19920;-87
2023/10/20 02:05:22;;;;;;;;;;;15.40;99.90;;;;;;5071227;28;19913;-87
2023/10/20 02:07:48;;;;;;;;;;;15.40;99.90;;;;;;5102765;28;19985;-85
2023/10/20 02:10:14;;;;;;;;;;;15.30;99.90;;;;;;5088689;28;20383;-85
2023/10/20 02:12:41;;;;;;;;;;;15.30;99.90;;;;;;5089445;28;19957;-87
2023/10/20 02:15:07;;;;;;;;;;;15.30;99.90;;;;;;5088859;28;20273;-88
2023/10/20 02:17:36;;;;;;;;;;;15.30;99.90;;;;;;5082107;28;20005;-83
2023/10/20 02:20:03;;;;;;;;;;;15.40;99.90;;;;;;5070032;28;20308;-85
2023/10/20 02:22:28;;;;;;;;;;;15.30;99.90;;;;;;5069760;28;19912;-83
2023/10/20 02:24:54;;;;;;;;;;;15.30;99.90;;;;;;5070842;28;20070;-87
2023/10/20 02:27:20;;;;;;;;;;;15.30;99.90;;;;;;5070081;28;19908;-87
2023/10/20 02:29:45;;;;;;;;;;;15.30;99.90;;;;;;5077956;28;20368;-82
2023/10/20 02:32:12;;;;;;;;;;;15.30;99.90;;;;;;5073185;28;19912;-85
2023/10/20 02:34:37;;;;;;;;;;;15.30;99.90;;;;;;5083788;28;19920;-90
2023/10/20 02:37:03;;;;;;;;;;;15.30;99.90;;;;;;5073885;28;19986;-83
2023/10/20 02:39:28;;;;;;;;;;;15.20;99.90;;;;;;5074159;28;20391;-83
2023/10/20 02:41:54;;;;;;;;;;;15.10;99.90;;;;;;5075581;28;20353;-82
2023/10/20 02:44:21;;;;;;;;;;;15.00;99.90;;;;;;5088985;28;20010;-82
2023/10/20 02:46:46;;;;;;;;;;;15.00;99.90;;;;;;5088900;28;19908;-82
2023/10/20 02:49:12;;;;;;;;;;;15.00;99.90;;;;;;5089789;28;19977;-82
2023/10/20 02:51:37;;;;;;;;;;;15.00;99.90;;;;;;5069748;28;20384;-82
2023/10/20 02:54:03;;;;;;;;;;;15.10;99.90;;;;;;5069359;28;19916;-83
2023/10/20 02:56:28;;;;;;;;;;;15.10;99.90;;;;;;5086727;28;19978;-82
2023/10/20 02:58:54;;;;;;;;;;;15.20;99.90;;;;;;5087936;28;20398;-84
2023/10/20 03:01:20;;;;;;;;;;;15.20;99.90;;;;;;5071161;28;19913;-82
2023/10/20 03:03:46;;;;;;;;;;;15.20;99.90;;;;;;5084562;28;19955;-86
2023/10/20 03:06:12;;;;;;;;;;;15.20;99.90;;;;;;5101752;28;19982;-82
2023/10/20 03:08:37;;;;;;;;;;;15.20;99.90;;;;;;5087471;28;20432;-82
2023/10/20 03:11:04;;;;;;;;;;;15.30;99.90;;;;;;5087028;28;19941;-87
2023/10/20 03:13:30;;;;;;;;;;;15.30;99.90;;;;;;5082507;28;19912;-82
2023/10/20 03:15:56;;;;;;;;;;;15.40;99.90;;;;;;5089665;28;20002;-85
2023/10/20 03:18:23;;;;;;;;;;;15.40;99.90;;;;;;5069480;28;20324;-82
2023/10/20 03:20:49;;;;;;;;;;;15.40;99.90;;;;;;5069323;28;20368;-82
2023/10/20 03:23:15;;;;;;;;;;;15.40;99.90;;;;;;5088087;28;19915;-82
2023/10/20 03:25:41;;;;;;;;;;;15.40;99.90;;;;;;5089637;28;19908;-85
2023/10/20 03:28:06;;;;;;;;;;;15.40;99.90;;;;;;5069595;28;19913;-82
2023/10/20 03:30:38;;;;;;;;;;;15.40;99.90;;;;;;5069333;28;19913;-82
2023/10/20 03:33:07;;;;;;;;;;;15.50;99.90;;;;;;5087284;28;19970;-83
2023/10/20 03:35:32;;;;;;;;;;;15.50;99.90;;;;;;5092511;28;19920;-82
2023/10/20 03:38:00;;;;;;;;;;;15.50;99.90;;;;;;5075478;28;20380;-82
2023/10/20 03:40:36;;;;;;;;;;;15.50;99.90;;;;;;5073782;28;19963;-83
2023/10/20 03:43:03;;;;;;;;;;;15.50;99.90;;;;;;5088870;28;20014;-82
2023/10/20 03:45:29;;;;;;;;;;;15.50;99.90;;;;;;5092598;28;20401;-86
2023/10/20 03:47:54;;;;;;;;;;;15.60;99.90;;;;;;5091866;28;19916;-85
2023/10/20 03:50:20;;;;;;;;;;;15.60;99.90;;;;;;5091330;28;20272;-83
2023/10/20 03:52:46;;;;;;;;;;;15.60;99.90;;;;;;5092145;28;19912;-83
2023/10/20 03:55:15;;;;;;;;;;;15.50;99.90;;;;;;5076007;28;19928;-85
2023/10/20 03:57:41;;;;;;;;;;;15.60;99.90;;;;;;5085767;28;19912;-86
2023/10/20 04:02:52;;;;;;;;;;;15.60;99.90;;;;;;5092193;28;19919;-82
2023/10/20 04:05:19;;;;;;;;;;;15.60;99.90;;;;;;5074084;28;19913;-82
2023/10/20 04:07:45;;;;;;;;;;;15.60;99.90;;;;;;5087302;28;19919;-82
2023/10/20 04:10:10;;;;;;;;;;;15.50;99.90;;;;;;5075972;28;19912;-83
2023/10/20 04:12:36;;;;;;;;;;;15.60;99.90;;;;;;5084442;28;20414;-84
2023/10/20 04:15:02;;;;;;;;;;;15.50;99.90;;;;;;5081156;28;19970;-83
2023/10/20 04:17:28;;;;;;;;;;;15.50;99.90;;;;;;5091642;28;19979;-83
2023/10/20 04:19:54;;;;;;;;;;;15.50;99.90;;;;;;5091418;28;19941;-85
2023/10/20 04:22:23;;;;;;;;;;;15.60;99.90;;;;;;5092428;28;19916;-89
2023/10/20 04:24:48;;;;;;;;;;;15.60;99.90;;;;;;5072403;28;19987;-84
2023/10/20 04:27:39;;;;;;;;;;;15.60;99.90;;;;;;5072519;28;19947;-83
2023/10/20 04:44:57;;;;;;;;;;;15.50;99.90;;;;;;5092590;28;19919;-91
2023/10/20 04:54:25;;;;;;;;;;;15.50;99.90;;;;;;5090920;28;20216;-83
2023/10/20 04:57:23;;;;;;;;;;;15.60;99.90;;;;;;5091401;28;19912;-82
2023/10/20 04:59:36;;;;;;;;;;;15.50;99.90;;;;;;5090068;28;19934;-82
2023/10/20 05:05:06;;;;;;;;;;;15.60;99.90;;;;;;5060251;28;19912;-82
2023/10/20 05:07:32;;;;;;;;;;;15.50;99.90;;;;;;5073885;28;19913;-82
2023/10/20 05:09:57;;;;;;;;;;;15.60;99.90;;;;;;5071405;28;19909;-81
2023/10/20 05:12:23;;;;;;;;;;;15.50;99.90;;;;;;5083778;28;19916;-81
2023/10/20 05:14:49;;;;;;;;;;;15.50;99.90;;;;;;5088302;28;19920;-88
2023/10/20 05:17:19;;;;;;;;;;;15.50;99.90;;;;;;5090496;28;19920;-82
2023/10/20 05:19:47;;;;;;;;;;;15.50;99.90;;;;;;5089966;28;20383;-81
2023/10/20 05:22:13;;;;;;;;;;;15.50;99.90;;;;;;5090863;28;19919;-82
2023/10/20 05:24:38;;;;;;;;;;;15.50;99.90;;;;;;5090773;28;19912;-81
2023/10/20 05:27:04;;;;;;;;;;;15.50;99.90;;;;;;5091377;28;19912;-84
2023/10/20 05:29:29;;;;;;;;;;;15.50;99.90;;;;;;5090268;28;19916;-82
2023/10/20 05:31:55;;;;;;;;;;;15.50;99.90;;;;;;5089988;28;20196;-82
2023/10/20 05:34:20;;;;;;;;;;;15.50;99.90;;;;;;5090432;28;19958;-84
2023/10/20 05:36:46;;;;;;;;;;;15.50;99.90;;;;;;5090149;28;19920;-84
2023/10/20 05:39:13;;;;;;;;;;;15.50;99.90;;;;;;5090249;28;19914;-83
2023/10/20 05:41:39;;;;;;;;;;;15.50;99.90;;;;;;5107213;27;19913;-83
2023/10/20 05:44:06;;;;;;;;;;;15.50;99.90;;;;;;5071529;28;19909;-86
2023/10/20 05:46:32;;;;;;;;;;;15.50;99.90;;;;;;5071594;28;19908;-83
2023/10/20 05:48:57;;;;;;;;;;;15.50;99.90;;;;;;5084313;28;19972;-84
2023/10/20 05:51:23;;;;;;;;;;;15.40;99.90;;;;;;5090042;28;19912;-85
2023/10/20 05:53:48;;;;;;;;;;;15.40;99.90;;;;;;5090684;28;19962;-85
2023/10/20 05:56:13;;;;;;;;;;;15.40;99.90;;;;;;5090264;28;19916;-83
2023/10/20 05:58:40;;;;;;;;;;;15.40;99.90;;;;;;5078086;28;19958;-83
2023/10/20 06:01:06;;;;;;;;;;;15.40;99.90;;;;;;5078294;28;19982;-83
2023/10/20 06:03:31;;;;;;;;;;;15.40;99.90;;;;;;5089915;28;19919;-82
2023/10/20 06:05:58;;;;;;;;;;;15.50;99.90;;;;;;5090139;28;19912;-82
2023/10/20 06:08:23;;;;;;;;;;;15.50;99.90;;;;;;5087993;28;20407;-82
2023/10/20 06:10:49;;;;;;;;;;;15.50;99.90;;;;;;5090238;28;19916;-82
2023/10/20 06:13:15;;;;;;;;;;;15.50;99.90;;;;;;5090436;28;19969;-83
2023/10/20 06:15:41;;;;;;;;;;;15.50;99.90;;;;;;5089341;28;19924;-85
2023/10/20 06:18:06;;;;;;;;;;;15.50;99.90;;;;;;5089396;28;19912;-85
2023/10/20 06:20:37;;;;;;;;;;;15.50;99.90;;;;;;5090087;28;19908;-82
2023/10/20 06:23:02;;;;;;;;;;;15.50;99.90;;;;;;5089371;28;19912;-87
2023/10/20 06:25:30;;;;;;;;;;;15.50;99.90;;;;;;5086878;28;20139;-87
2023/10/20 06:27:56;;;;;;;;;;;15.40;99.90;;;;;;5086120;28;19912;-88
2023/10/20 06:30:24;;;;;;;;;;;15.50;99.90;;;;;;5089183;28;19918;-83
2023/10/20 06:32:56;;;;;;;;;;;15.30;99.90;;;;;;5088724;28;20003;-83
2023/10/20 06:35:28;;;;;;;;;;;15.40;99.90;;;;;;5089918;28;20352;-89
2023/10/20 06:38:10;;;;;;;;;;;15.40;99.90;;;;;;5089401;28;19912;-88
2023/10/20 06:40:36;;;;;;;;;;;15.40;99.90;;;;;;5091181;28;19912;-88
2023/10/20 06:43:02;;;;;;;;;;;15.40;99.90;;;;;;5090133;28;20440;-88
2023/10/20 06:45:27;;;;;;;;;;;15.40;99.90;;;;;;5090151;28;19940;-85
2023/10/20 06:47:53;;;;;;;;;;;15.40;99.90;;;;;;5084665;28;19967;-82
2023/10/20 06:50:18;;;;;;;;;;;15.40;99.90;;;;;;5069822;28;19908;-83
2023/10/20 06:52:44;;;;;;;;;;;15.40;99.90;;;;;;5069691;28;20375;-88
2023/10/20 06:55:10;;;;;;;;;;;15.40;99.90;;;;;;5070629;28;19916;-85
2023/10/20 06:57:35;;;;;;;;;;;15.40;99.90;;;;;;5082273;28;20492;-83
2023/10/20 07:00:02;;;;;;;;;;;15.40;99.90;;;;;;5089014;28;19961;-83
2023/10/20 07:02:28;;;;;;;;;;;15.40;99.90;;;;;;5088653;28;19933;-89
2023/10/20 07:04:53;;;;;;;;;;;15.40;99.90;;;;;;5089949;28;19919;-86
2023/10/20 07:07:19;;;;;;;;;;;15.40;99.90;;;;;;5089108;28;19919;-82
2023/10/20 07:09:45;;;;;;;;;;;15.50;99.90;;;;;;5087619;28;19912;-87
2023/10/20 07:12:11;;;;;;;;;;;15.40;99.90;;;;;;5090353;28;19969;-83
2023/10/20 07:14:38;;;;;;;;;;;15.50;99.90;;;;;;5089067;28;20315;-86
2023/10/20 07:17:06;;;;;;;;;;;15.30;99.90;;;;;;5088490;28;19913;-87
2023/10/20 07:19:31;;;;;;;;;;;15.30;99.90;;;;;;5086649;28;20325;-89
2023/10/20 07:21:57;;;;;;;;;;;15.30;99.90;;;;;;5087909;28;20380;-85
2023/10/20 07:24:23;;;;;;;;;;;15.30;99.90;;;;;;5088520;28;19908;-84
2023/10/20 07:26:49;;;;;;;;;;;15.30;99.90;;;;;;5087859;28;19912;-83
2023/10/20 07:29:14;;;;;;;;;;;15.30;99.90;;;;;;5087658;28;19916;-82
2023/10/20 07:31:40;;;;;;;;;;;15.30;99.90;;;;;;5088892;28;19915;-89
2023/10/20 07:34:09;;;;;;;;;;;15.20;99.90;;;;;;5088122;28;20336;-84
2023/10/20 07:36:35;;;;;;;;;;;15.30;99.90;;;;;;5078241;28;19916;-83
2023/10/20 07:39:00;;;;;;;;;;;15.30;99.90;;;;;;5068894;28;19912;-83
2023/10/20 07:41:26;;;;;;;;;;;15.30;99.90;;;;;;5083321;28;19912;-88
2023/10/20 07:43:51;;;;;;;;;;;15.30;99.90;;;;;;5089353;28;19908;-84
2023/10/20 07:46:17;;;;;;;;;;;15.30;99.90;;;;;;5088056;28;19919;-89
2023/10/20 07:48:43;;;;;;;;;;;15.20;99.90;;;;;;5082413;28;19923;-82
2023/10/20 07:51:08;;;;;;;;;;;15.30;99.90;;;;;;5055660;28;19920;-83
2023/10/20 07:53:34;;;;;;;;;;;15.30;99.90;;;;;;5051701;28;19966;-84
2023/10/20 07:56:00;;;;;;;;;;;15.40;99.90;;;;;;5061050;28;19952;-87
2023/10/20 07:58:26;;;;;;;;;;;15.40;99.90;;;;;;5066216;28;19912;-82
2023/10/20 08:00:51;;;;;;;;;;;15.40;99.90;;;;;;5056416;28;20342;-83
2023/10/20 08:03:17;;;;;;;;;;;15.40;99.90;;;;;;5067273;28;19912;-82
2023/10/20 08:05:42;;;;;;;;;;;15.30;99.90;;;;;;5090051;28;19908;-83
2023/10/20 08:08:08;;;;;;;;;;;15.30;99.90;;;;;;5089385;28;19907;-87
2023/10/20 08:10:36;;;;;;;;;;;15.30;99.90;;;;;;5089181;28;19920;-84
2023/10/20 08:13:02;;;;;;;;;;;15.40;99.90;;;;;;5089240;28;19908;-82
2023/10/20 08:15:28;;;;;;;;;;;15.40;99.90;;;;;;5058878;28;19928;-83
2023/10/20 08:17:54;;;;;;;;;;;15.40;99.90;;;;;;5048709;28;19912;-84
2023/10/20 08:20:20;;;;;;;;;;;15.40;99.90;;;;;;5049777;28;20003;-83
2023/10/20 08:22:46;;;;;;;;;;;15.50;99.90;;;;;;5034595;28;19966;-85
2023/10/20 08:25:12;;;;;;;;;;;15.50;99.90;;;;;;5053355;28;19944;-84
2023/10/20 08:27:37;;;;;;;;;;;15.50;99.90;;;;;;5052031;28;19919;-83
2023/10/20 08:30:04;;;;;;;;;;;15.60;99.90;;;;;;5052166;28;20003;-83
2023/10/20 08:32:30;;;;;;;;;;;15.60;99.90;;;;;;5052201;28;19909;-84
2023/10/20 08:34:55;;;;;;;;;;;15.60;99.90;;;;;;5062655;28;20291;-86
2023/10/20 08:37:21;;;;;;;;;;;15.60;99.90;;;;;;5054179;28;19936;-85
2023/10/20 08:39:46;;;;;;;;;;;15.70;99.90;;;;;;5067959;28;20308;-84
2023/10/20 08:42:16;;;;;;;;;;;15.70;99.90;;;;;;5034844;28;19916;-82
2023/10/20 08:44:42;;;;;;;;;;;15.70;99.90;;;;;;5052805;28;19991;-83
2023/10/20 08:47:09;;;;;;;;;;;15.70;99.90;;;;;;5054040;28;19940;-82
2023/10/20 08:49:35;;;;;;;;;;;15.70;99.90;;;;;;5071977;28;20261;-88
2023/10/20 08:52:02;;;;;;;;;;;15.70;99.90;;;;;;5072002;28;20011;-87
2023/10/20 08:54:27;;;;;;;;;;;15.70;99.90;;;;;;5071699;28;20471;-83
2023/10/20 08:56:53;;;;;;;;;;;15.70;99.90;;;;;;5084965;28;20067;-84
2023/10/20 08:59:19;;;;;;;;;;;15.70;99.90;;;;;;5091919;28;19940;-85
2023/10/20 09:01:46;;;;;;;;;;;15.80;99.90;;;;;;5092764;28;19916;-85
2023/10/20 09:04:22;;;;;;;;;;;15.80;99.90;;;;;;5091434;28;19908;-87
2023/10/20 09:06:48;;;;;;;;;;;15.80;99.90;;;;;;5090622;28;20290;-86
2023/10/20 09:09:14;;;;;;;;;;;15.80;99.90;;;;;;5092675;28;19908;-85
2023/10/20 09:11:43;;;;;;;;;;;15.80;99.90;;;;;;5091763;28;19908;-86
2023/10/20 09:14:10;;;;;;;;;;;15.80;99.90;;;;;;5084365;28;20445;-85
2023/10/20 09:16:36;;;;;;;;;;;15.90;99.90;;;;;;5081288;28;19920;-87
2023/10/20 09:19:03;;;;;;;;;;;15.80;99.90;;;;;;5091674;28;20285;-84
2023/10/20 09:21:28;;;;;;;;;;;15.90;99.90;;;;;;5090395;28;20325;-88
2023/10/20 09:23:57;;;;;;;;;;;15.90;99.90;;;;;;5091505;28;19994;-83
2023/10/20 09:26:24;;;;;;;;;;;15.90;99.90;;;;;;5091640;28;19915;-88
2023/10/20 09:28:50;;;;;;;;;;;15.90;99.90;;;;;;5090849;28;19913;-82
2023/10/20 09:31:18;;;;;;;;;;;15.90;99.90;;;;;;5090857;28;19965;-83
2023/10/20 09:33:44;;;;;;;;;;;15.90;99.90;;;;;;5091361;28;19920;-88
2023/10/20 09:36:11;;;;;;;;;;;15.90;99.90;;;;;;5090064;28;19923;-89
2023/10/20 09:38:37;;;;;;;;;;;15.90;99.90;;;;;;5087432;28;19912;-84
2023/10/20 09:41:11;;;;;;;;;;;15.90;99.90;;;;;;5084781;28;19916;-84
2023/10/20 09:43:40;;;;;;;;;;;15.90;99.90;;;;;;5070069;28;19912;-85
2023/10/20 09:46:32;;;;;;;;;;;16.00;99.90;;;;;;5102826;28;19995;-84
2023/10/20 09:48:59;;;;;;;;;;;16.00;99.90;;;;;;5060814;28;20255;-85
2023/10/20 09:51:25;;;;;;;;;;;16.00;99.90;;;;;;5090072;28;20295;-84
2023/10/20 09:53:51;;;;;;;;;;;16.10;99.90;;;;;;5090873;28;19995;-84
2023/10/20 09:56:17;;;;;;;;;;;16.10;99.90;;;;;;5090308;28;19956;-88
2023/10/20 09:58:43;;;;;;;;;;;16.20;99.90;;;;;;5089533;28;19970;-83
2023/10/20 10:01:12;;;;;;;;;;;16.20;99.90;;;;;;5088364;28;20015;-85
2023/10/20 10:03:39;;;;;;;;;;;16.30;99.90;;;;;;5090383;28;19912;-91
2023/10/20 10:06:10;;;;;;;;;;;16.30;99.90;;;;;;5088373;28;19958;-86
2023/10/20 10:08:39;;;;;;;;;;;16.20;99.90;;;;;;5089440;28;19958;-84
2023/10/20 10:11:21;;;;;;;;;;;16.20;99.90;;;;;;5086519;28;19952;-82
2023/10/20 10:13:51;;;;;;;;;;;16.40;99.90;;;;;;5088871;28;19970;-86
2023/10/20 10:16:19;;;;;;;;;;;16.40;99.90;;;;;;5077724;28;19920;-86
2023/10/20 10:18:47;;;;;;;;;;;16.40;99.90;;;;;;5090317;28;19912;-86
2023/10/20 10:21:26;;;;;;;;;;;16.50;99.90;;;;;;5089152;28;20050;-89
2023/10/20 10:24:06;;;;;;;;;;;16.50;99.90;;;;;;5088301;28;19913;-84
2023/10/20 10:26:32;;;;;;;;;;;16.50;99.90;;;;;;5089524;28;19915;-83
2023/10/20 10:28:57;;;;;;;;;;;16.60;99.90;;;;;;5096551;28;19920;-87
2023/10/20 10:31:32;;;;;;;;;;;16.50;99.90;;;;;;5089415;28;19908;-83
2023/10/20 10:34:04;;;;;;;;;;;16.60;99.90;;;;;;5087194;28;19912;-84
2023/10/20 10:36:50;;;;;;;;;;;16.60;99.90;;;;;;5087943;28;19916;-84
2023/10/20 10:39:27;;;;;;;;;;;16.60;99.90;;;;;;5087883;28;19915;-84
2023/10/20 10:41:53;;;;;;;;;;;16.60;99.90;;;;;;5089595;28;19915;-83
2023/10/20 10:44:20;;;;;;;;;;;16.60;99.90;;;;;;5088299;28;20000;-90
2023/10/20 10:46:47;;;;;;;;;;;16.60;99.90;;;;;;5087961;28;19912;-83
2023/10/20 10:49:13;;;;;;;;;;;16.70;99.90;;;;;;5088341;28;20109;-84
2023/10/20 10:51:46;;;;;;;;;;;16.70;99.90;;;;;;5087716;28;20003;-85
2023/10/20 10:54:12;;;;;;;;;;;16.70;99.90;;;;;;5076842;28;19912;-84
2023/10/20 10:56:38;;;;;;;;;;;16.70;99.90;;;;;;5087824;28;19962;-89
2023/10/20 10:59:04;;;;;;;;;;;16.80;99.90;;;;;;5089522;28;19995;-88
2023/10/20 11:01:29;;;;;;;;;;;16.80;99.90;;;;;;5089516;28;19915;-84
2023/10/20 11:03:55;;;;;;;;;;;16.80;99.90;;;;;;5087961;28;19912;-88
2023/10/20 11:06:20;;;;;;;;;;;16.80;99.90;;;;;;5090178;28;19914;-90
2023/10/20 11:08:46;;;;;;;;;;;16.80;99.90;;;;;;5088075;28;19991;-89
2023/10/20 11:11:12;;;;;;;;;;;16.80;99.90;;;;;;5086397;28;19948;-88
2023/10/20 11:13:40;;;;;;;;;;;16.90;99.90;;;;;;5086959;28;19975;-88
2023/10/20 11:16:06;;;;;;;;;;;16.90;99.90;;;;;;5089211;28;20395;-88
2023/10/20 11:18:32;;;;;;;;;;;16.90;99.90;;;;;;5089162;28;19909;-88
2023/10/20 11:20:58;;;;;;;;;;;16.90;99.90;;;;;;5089220;28;19919;-87
2023/10/20 11:23:27;;;;;;;;;;;17.00;99.90;;;;;;5090060;28;19908;-84
2023/10/20 11:25:53;;;;;;;;;;;17.00;99.90;;;;;;5090084;28;19915;-87
2023/10/20 11:28:18;;;;;;;;;;;17.00;99.90;;;;;;5089101;28;19908;-88
2023/10/20 11:30:45;;;;;;;;;;;16.90;99.90;;;;;;5086193;28;20138;-84
2023/10/20 11:33:11;;;;;;;;;;;16.90;99.90;;;;;;5087071;28;20057;-88
2023/10/20 11:35:37;;;;;;;;;;;16.90;99.90;;;;;;5088679;28;19923;-88
2023/10/20 11:38:03;;;;;;;;;;;16.90;99.90;;;;;;5087868;28;19912;-84
2023/10/20 11:40:28;;;;;;;;;;;16.90;99.90;;;;;;5088406;28;19908;-86
2023/10/20 11:42:55;;;;;;;;;;;16.90;99.90;;;;;;5089765;28;19912;-85
2023/10/20 11:45:20;;;;;;;;;;;16.80;99.90;;;;;;5088458;28;20256;-87
2023/10/20 11:47:46;;;;;;;;;;;16.90;99.90;;;;;;5084961;28;20413;-86
2023/10/20 11:50:13;;;;;;;;;;;16.90;99.90;;;;;;5036155;28;19966;-87
2023/10/20 11:52:39;;;;;;;;;;;16.80;99.90;;;;;;5050317;28;19975;-88
2023/10/20 11:55:05;;;;;;;;;;;16.70;99.90;;;;;;5070626;28;19920;-87
2023/10/20 11:57:31;;;;;;;;;;;16.80;99.90;;;;;;5072219;28;20003;-87
2023/10/20 11:59:56;;;;;;;;;;;16.80;99.90;;;;;;5072625;28;19909;-85
2023/10/20 12:02:22;;;;;;;;;;;16.80;99.90;;;;;;5073107;28;19944;-84
2023/10/20 12:04:48;;;;;;;;;;;16.80;99.90;;;;;;5071036;28;19945;-87
2023/10/20 12:07:13;;;;;;;;;;;16.90;99.90;;;;;;5056618;28;19912;-86
2023/10/20 12:09:39;;;;;;;;;;;16.90;99.90;;;;;;5074129;28;19997;-87
2023/10/20 12:12:04;;;;;;;;;;;16.90;99.90;;;;;;5092301;28;20379;-87
2023/10/20 12:14:30;;;;;;;;;;;16.90;99.90;;;;;;5064205;28;19920;-83
2023/10/20 12:16:55;;;;;;;;;;;16.90;99.90;;;;;;5052649;28;19920;-84
2023/10/20 12:19:21;;;;;;;;;;;16.90;99.90;;;;;;5052853;28;19948;-85
2023/10/20 12:21:46;;;;;;;;;;;16.80;99.90;;;;;;5051674;28;20450;-83
2023/10/20 12:24:12;;;;;;;;;;;16.90;99.90;;;;;;5033794;28;19908;-86
2023/10/20 12:26:37;;;;;;;;;;;16.90;99.90;;;;;;5057248;28;19919;-83
2023/10/20 12:29:03;;;;;;;;;;;16.80;99.90;;;;;;5083405;28;19908;-87
2023/10/20 12:31:29;;;;;;;;;;;16.90;99.90;;;;;;5092108;28;19961;-88
2023/10/20 12:33:54;;;;;;;;;;;16.80;99.90;;;;;;5092977;28;19916;-87
2023/10/20 12:36:21;;;;;;;;;;;16.90;99.90;;;;;;5076880;28;19921;-87
2023/10/20 12:38:47;;;;;;;;;;;16.80;99.90;;;;;;5070727;28;19916;-84
2023/10/20 12:41:13;;;;;;;;;;;16.90;99.90;;;;;;5071736;28;19909;-88
2023/10/20 12:43:40;;;;;;;;;;;16.90;99.90;;;;;;5053524;28;19909;-86
2023/10/20 12:46:06;;;;;;;;;;;16.90;99.90;;;;;;5045153;28;20299;-83
2023/10/20 12:48:32;;;;;;;;;;;16.90;99.90;;;;;;5084398;28;19956;-86
2023/10/20 12:50:57;;;;;;;;;;;16.90;99.90;;;;;;5089152;28;20032;-86
2023/10/20 12:53:23;;;;;;;;;;;16.80;99.90;;;;;;5090923;28;19913;-88
2023/10/20 12:55:49;;;;;;;;;;;16.70;99.90;;;;;;5088983;28;20349;-86
2023/10/20 12:58:14;;;;;;;;;;;16.80;99.90;;;;;;5090170;28;19946;-87
2023/10/20 13:00:40;;;;;;;;;;;16.80;99.90;;;;;;5090835;28;19912;-83
2023/10/20 13:03:06;;;;;;;;;;;16.80;99.90;;;;;;5089632;28;19916;-84
2023/10/20 13:05:33;;;;;;;;;;;16.80;99.90;;;;;;5088182;28;20358;-84
2023/10/20 13:07:59;;;;;;;;;;;16.80;99.90;;;;;;5090908;28;20364;-83
2023/10/20 13:10:25;;;;;;;;;;;16.80;99.90;;;;;;5099969;28;19919;-83
2023/10/20 13:12:50;;;;;;;;;;;16.80;99.90;;;;;;5107506;28;20353;-85
2023/10/20 13:15:19;;;;;;;;;;;16.80;99.90;;;;;;5090934;28;19920;-88
2023/10/20 13:17:45;;;;;;;;;;;16.80;99.90;;;;;;5089360;28;20371;-85
2023/10/20 13:20:12;;;;;;;;;;;16.90;99.90;;;;;;5090411;28;19912;-88
2023/10/20 13:22:38;;;;;;;;;;;16.90;99.90;;;;;;5092289;28;19915;-88
2023/10/20 13:25:04;;;;;;;;;;;16.90;99.90;;;;;;5090050;28;19912;-83
2023/10/20 13:27:31;;;;;;;;;;;16.90;99.90;;;;;;5088703;28;19991;-84
2023/10/20 13:29:58;;;;;;;;;;;16.90;99.90;;;;;;5090820;28;19940;-85
2023/10/20 13:32:23;;;;;;;;;;;17.00;99.90;;;;;;5090538;28;19923;-84
2023/10/20 13:34:49;;;;;;;;;;;17.00;99.90;;;;;;5088302;28;19916;-82
2023/10/20 13:37:15;;;;;;;;;;;17.00;99.90;;;;;;5090978;28;20386;-85
2023/10/20 13:39:40;;;;;;;;;;;17.00;99.90;;;;;;5089980;28;19909;-85
2023/10/20 13:42:06;;;;;;;;;;;17.00;99.90;;;;;;5090294;28;19977;-86
2023/10/20 13:44:32;;;;;;;;;;;17.10;99.90;;;;;;5090055;28;19912;-87
2023/10/20 13:46:58;;;;;;;;;;;17.10;99.90;;;;;;5090428;28;19918;-84
2023/10/20 13:49:24;;;;;;;;;;;17.10;99.90;;;;;;5081716;28;19919;-88
2023/10/20 13:51:49;;;;;;;;;;;17.10;99.90;;;;;;5108047;28;19908;-88
2023/10/20 13:54:15;;;;;;;;;;;17.10;99.90;;;;;;5098207;28;20387;-88
2023/10/20 13:56:41;;;;;;;;;;;17.20;99.90;;;;;;5089702;28;20387;-83
2023/10/20 13:59:06;;;;;;;;;;;17.20;99.90;;;;;;5090107;28;19958;-86
2023/10/20 14:01:32;;;;;;;;;;;17.20;99.90;;;;;;5089069;28;20003;-85
2023/10/20 14:03:58;;;;;;;;;;;17.10;99.90;;;;;;5089370;28;19919;-86
2023/10/20 14:06:24;;;;;;;;;;;17.20;99.90;;;;;;5074826;28;20311;-83
2023/10/20 14:08:50;;;;;;;;;;;17.30;99.90;;;;;;5069939;28;19931;-85
2023/10/20 14:11:16;;;;;;;;;;;17.30;99.90;;;;;;5124839;27;20620;-85
2023/10/20 14:13:41;;;;;;;;;;;17.30;99.90;;;;;;5089968;28;20389;-87
2023/10/20 14:16:06;;;;;;;;;;;17.40;99.90;;;;;;5088877;28;19923;-87
2023/10/20 14:18:32;;;;;;;;;;;17.40;99.90;;;;;;5088295;28;20000;-87
2023/10/20 14:20:58;;;;;;;;;;;17.40;99.90;;;;;;5088906;28;19912;-88
2023/10/20 14:23:27;;;;;;;;;;;17.50;99.90;;;;;;5087568;28;19912;-83
2023/10/20 14:25:57;;;;;;;;;;;17.50;99.90;;;;;;5088366;28;20383;-84
2023/10/20 14:28:24;;;;;;;;;;;17.50;99.90;;;;;;5090694;28;19908;-86
2023/10/20 14:30:54;;;;;;;;;;;17.50;99.90;;;;;;5087723;28;19912;-85
2023/10/20 14:33:19;;;;;;;;;;;17.50;99.90;;;;;;5088422;28;20280;-84
2023/10/20 14:35:45;;;;;;;;;;;17.50;99.90;;;;;;5088167;28;20237;-85
2023/10/20 14:38:10;;;;;;;;;;;17.50;99.90;;;;;;5091116;28;19911;-89
2023/10/20 14:40:36;;;;;;;;;;;17.50;99.90;;;;;;5109152;28;19997;-84